createdAt,value
2023-01-17T00:01:10.067Z,83.70
2023-01-17T00:03:54.601Z,83.89
2023-01-17T00:06:43.068Z,84.00
2023-01-17T00:09:32.741Z,84.01
2023-01-17T00:12:05.441Z,84.29
2023-01-17T00:14:36.454Z,84.57
2023-01-17T00:17:07.184Z,84.59
2023-01-17T00:20:00.539Z,84.78
2023-01-17T00:22:49.970Z,84.94
2023-01-17T00:25:41.303Z,84.81
2023-01-17T00:28:10.680Z,84.98
2023-01-17T00:30:39.928Z,85.07
2023-01-17T00:33:09.454Z,85.08
2023-01-17T00:35:39.189Z,85.14
2023-01-17T00:38:17.904Z,85.12
2023-01-17T00:40:48.691Z,85.02
2023-01-17T00:43:38.313Z,85.40
2023-01-17T00:46:27.189Z,85.48
2023-01-17T00:49:15.601Z,85.31
2023-01-17T00:52:03.441Z,85.49
2023-01-17T00:54:50.038Z,85.73
2023-01-17T00:57:37.871Z,85.71
2023-01-17T01:00:25.597Z,85.77
2023-01-17T01:03:12.249Z,85.69
2023-01-17T01:06:00.049Z,85.92
2023-01-17T01:08:48.037Z,85.78
2023-01-17T01:11:38.249Z,85.80
2023-01-17T01:14:28.838Z,86.03
2023-01-17T01:17:17.278Z,86.15
2023-01-17T01:20:05.755Z,86.07
2023-01-17T01:22:53.820Z,86.03
2023-01-17T01:25:41.643Z,86.15
2023-01-17T01:28:29.974Z,86.12
2023-01-17T01:31:19.489Z,86.24
2023-01-17T01:33:51.133Z,86.26
2023-01-17T01:36:21.941Z,86.40
2023-01-17T01:38:54.452Z,86.25
2023-01-17T01:41:25.090Z,86.17
2023-01-17T01:43:56.943Z,86.17
2023-01-17T01:46:31.473Z,86.20
2023-01-17T01:49:05.572Z,86.20
2023-01-17T01:51:40.736Z,86.12
2023-01-17T01:54:16.500Z,86.24
2023-01-17T01:56:48.856Z,85.96
2023-01-17T01:59:22.327Z,85.96
2023-01-17T02:01:56.276Z,85.63
2023-01-17T02:04:29.132Z,85.48
2023-01-17T02:07:06.803Z,85.29
2023-01-17T02:09:37.857Z,85.04
2023-01-17T02:12:09.436Z,84.88
2023-01-17T02:14:40.124Z,84.77
2023-01-17T02:17:20.826Z,84.65
2023-01-17T02:20:22.331Z,84.42
2023-01-17T02:23:41.066Z,84.35
2023-01-17T02:26:43.776Z,84.36
2023-01-17T02:30:00.098Z,84.05
2023-01-17T02:32:43.278Z,84.00
2023-01-17T02:35:20.381Z,83.85
2023-01-17T02:37:59.439Z,83.88
2023-01-17T02:40:36.671Z,83.80
2023-01-17T02:43:11.676Z,84.00
2023-01-17T02:45:42.387Z,84.18
2023-01-17T02:48:16.117Z,84.59
2023-01-17T02:51:16.980Z,84.53
2023-01-17T02:54:01.822Z,84.72
2023-01-17T02:56:45.248Z,85.04
2023-01-17T02:59:28.264Z,85.22
2023-01-17T03:02:11.013Z,85.17
2023-01-17T03:04:49.895Z,85.38
2023-01-17T03:07:23.818Z,85.43
2023-01-17T03:09:59.874Z,85.47
2023-01-17T03:12:32.441Z,85.71
2023-01-17T03:15:02.799Z,85.53
2023-01-17T03:17:35.134Z,85.61
2023-01-17T03:20:05.998Z,85.85
2023-01-17T03:22:36.325Z,86.12
2023-01-17T03:25:07.687Z,86.13
2023-01-17T03:27:38.407Z,86.36
2023-01-17T03:30:11.309Z,86.49
2023-01-17T03:32:42.467Z,86.59
2023-01-17T03:35:12.984Z,86.64
2023-01-17T03:37:43.746Z,86.64
2023-01-17T03:40:14.779Z,86.80
2023-01-17T03:42:45.332Z,87.03
2023-01-17T03:45:15.966Z,87.05
2023-01-17T03:47:46.844Z,86.98
2023-01-17T03:50:17.976Z,87.08
2023-01-17T03:52:48.781Z,86.91
2023-01-17T03:55:19.267Z,86.69
2023-01-17T03:57:49.594Z,86.95
2023-01-17T04:00:21.814Z,86.61
2023-01-17T04:02:52.371Z,86.64
2023-01-17T04:05:22.697Z,86.71
2023-01-17T04:07:53.410Z,86.54
2023-01-17T04:10:23.768Z,87.03
2023-01-17T04:12:54.084Z,87.53
2023-01-17T04:15:24.404Z,87.53
2023-01-17T04:17:54.886Z,87.41
2023-01-17T04:20:32.803Z,87.57
2023-01-17T04:23:03.443Z,87.68
2023-01-17T04:25:34.611Z,87.52
2023-01-17T04:28:05.883Z,87.73
2023-01-17T04:30:36.265Z,87.62
2023-01-17T04:33:06.812Z,87.52
2023-01-17T04:35:37.185Z,87.42
2023-01-17T04:38:07.455Z,87.32
2023-01-17T04:40:37.793Z,87.27
2023-01-17T04:43:08.096Z,87.29
2023-01-17T04:45:39.273Z,87.17
2023-01-17T04:48:12.489Z,86.80
2023-01-17T04:50:42.885Z,86.35
2023-01-17T04:53:14.060Z,86.30
2023-01-17T04:55:47.494Z,86.36
2023-01-17T04:58:18.102Z,86.20
2023-01-17T05:00:50.968Z,86.34
2023-01-17T05:03:22.684Z,86.18
2023-01-17T05:05:53.314Z,86.14
2023-01-17T05:08:23.744Z,85.96
2023-01-17T05:10:54.189Z,85.77
2023-01-17T05:13:24.905Z,86.05
2023-01-17T05:15:56.961Z,86.05
2023-01-17T05:18:27.637Z,85.99
2023-01-17T05:21:04.173Z,85.76
2023-01-17T05:23:34.588Z,86.05
2023-01-17T05:26:04.899Z,86.17
2023-01-17T05:28:36.341Z,86.30
2023-01-17T05:31:07.487Z,86.36
2023-01-17T05:33:38.361Z,86.40
2023-01-17T05:36:10.438Z,86.77
2023-01-17T05:38:40.774Z,86.80
2023-01-17T05:41:11.283Z,87.15
2023-01-17T05:43:42.195Z,87.46
2023-01-17T05:46:13.232Z,87.54
2023-01-17T05:48:43.547Z,87.78
2023-01-17T05:51:14.675Z,87.96
2023-01-17T05:53:45.543Z,87.88
2023-01-17T05:56:15.931Z,88.12
2023-01-17T05:58:46.300Z,88.26
2023-01-17T06:01:17.718Z,88.54
2023-01-17T06:03:48.841Z,88.52
2023-01-17T06:06:19.505Z,88.81
2023-01-17T06:08:49.944Z,89.04
2023-01-17T06:11:20.283Z,88.93
2023-01-17T06:13:51.940Z,88.80
2023-01-17T06:16:22.663Z,88.65
2023-01-17T06:18:54.127Z,88.24
2023-01-17T06:21:24.840Z,87.61
2023-01-17T06:23:57.173Z,87.69
2023-01-17T06:26:27.598Z,87.52
2023-01-17T06:28:57.891Z,87.62
2023-01-17T06:31:28.699Z,87.60
2023-01-17T06:34:02.593Z,88.04
2023-01-17T06:36:33.676Z,88.36
2023-01-17T06:39:04.076Z,88.53
2023-01-17T06:41:34.467Z,88.84
2023-01-17T06:44:05.220Z,89.23
2023-01-17T06:46:36.036Z,89.56
2023-01-17T06:49:06.602Z,89.63
2023-01-17T06:51:36.988Z,89.81
2023-01-17T06:54:07.551Z,90.27
2023-01-17T06:56:38.418Z,90.33
2023-01-17T06:59:09.470Z,90.37
2023-01-17T07:01:39.850Z,90.19
2023-01-17T07:04:10.364Z,90.27
2023-01-17T07:06:40.763Z,90.65
2023-01-17T07:09:11.321Z,90.58
2023-01-17T07:11:41.888Z,90.88
2023-01-17T07:14:16.637Z,90.84
2023-01-17T07:16:50.035Z,90.96
2023-01-17T07:19:20.347Z,90.99
2023-01-17T07:21:53.231Z,90.99
2023-01-17T07:24:24.262Z,91.03
2023-01-17T07:26:54.701Z,90.92
2023-01-17T07:29:25.335Z,91.12
2023-01-17T07:31:56.159Z,90.41
2023-01-17T07:34:26.863Z,90.32
2023-01-17T07:36:57.944Z,90.50
2023-01-17T07:39:28.996Z,90.50
2023-01-17T07:41:59.915Z,90.81
2023-01-17T07:44:30.648Z,90.97
2023-01-17T07:47:01.010Z,91.39
2023-01-17T07:49:31.319Z,91.31
2023-01-17T07:52:01.638Z,91.83
2023-01-17T07:54:31.987Z,91.64
2023-01-17T07:57:02.628Z,91.56
2023-01-17T07:59:34.391Z,91.72
2023-01-17T08:02:05.021Z,91.42
2023-01-17T08:04:36.134Z,91.34
2023-01-17T08:07:06.476Z,91.54
2023-01-17T08:09:37.107Z,91.32
2023-01-17T08:12:08.434Z,91.42
2023-01-17T08:14:38.796Z,91.32
2023-01-17T08:17:11.846Z,91.10
2023-01-17T08:19:43.305Z,90.89
2023-01-17T08:22:14.026Z,91.03
2023-01-17T08:24:45.477Z,90.55
2023-01-17T08:27:15.811Z,90.78
2023-01-17T08:29:48.325Z,90.53
2023-01-17T08:32:19.934Z,90.47
2023-01-17T08:34:50.516Z,90.86
2023-01-17T08:37:20.774Z,90.43
2023-01-17T08:39:51.250Z,90.10
2023-01-17T08:42:21.556Z,90.30
2023-01-17T08:44:51.897Z,90.13
2023-01-17T08:47:22.524Z,90.35
2023-01-17T08:49:53.110Z,90.33
2023-01-17T08:52:23.474Z,90.30
2023-01-17T08:54:54.277Z,90.10
2023-01-17T08:57:25.030Z,89.94
2023-01-17T08:59:55.744Z,89.63
2023-01-17T09:02:26.092Z,89.62
2023-01-17T09:04:56.766Z,89.57
2023-01-17T09:07:27.195Z,89.27
2023-01-17T09:09:57.587Z,89.15
2023-01-17T09:12:27.973Z,89.33
2023-01-17T09:14:58.722Z,89.24
2023-01-17T09:17:29.608Z,88.76
2023-01-17T09:20:00.278Z,88.63
2023-01-17T09:22:31.050Z,88.09
2023-01-17T09:25:01.375Z,88.21
2023-01-17T09:27:31.696Z,88.18
2023-01-17T09:30:02.400Z,87.84
2023-01-17T09:32:32.749Z,87.47
2023-01-17T09:35:05.261Z,87.47
2023-01-17T09:37:35.684Z,86.99
2023-01-17T09:40:07.870Z,87.21
2023-01-17T09:42:41.189Z,86.88
2023-01-17T09:45:19.018Z,86.54
2023-01-17T09:47:53.027Z,86.29
2023-01-17T09:50:38.314Z,85.73
2023-01-17T09:53:15.580Z,85.85
2023-01-17T09:55:52.801Z,85.63
2023-01-17T09:58:35.348Z,85.64
2023-01-17T10:01:15.727Z,85.75
2023-01-17T10:03:58.746Z,85.78
2023-01-17T10:06:44.019Z,85.41
2023-01-17T10:09:48.252Z,85.26
2023-01-17T10:12:28.353Z,85.13
2023-01-17T10:15:17.552Z,85.14
2023-01-17T10:17:57.720Z,85.08
2023-01-17T10:20:45.882Z,85.31
2023-01-17T10:23:52.412Z,85.06
2023-01-17T10:26:25.748Z,85.34
2023-01-17T10:29:01.166Z,84.89
2023-01-17T10:31:37.167Z,84.53
2023-01-17T10:34:16.171Z,84.51
2023-01-17T10:36:50.791Z,84.81
2023-01-17T10:39:23.889Z,84.36
2023-01-17T10:41:58.993Z,84.42
2023-01-17T10:44:36.379Z,84.03
2023-01-17T10:47:14.034Z,83.89
2023-01-17T10:49:48.926Z,83.45
2023-01-17T10:52:33.037Z,83.05
2023-01-17T10:55:20.693Z,83.20
2023-01-17T10:57:52.079Z,83.37
2023-01-17T11:00:47.428Z,82.93
2023-01-17T11:03:20.682Z,82.14
2023-01-17T11:06:17.542Z,82.32
2023-01-17T11:08:56.328Z,82.04
2023-01-17T11:11:30.885Z,82.13
2023-01-17T11:14:05.671Z,81.95
2023-01-17T11:16:37.297Z,81.21
2023-01-17T11:19:16.250Z,80.67
2023-01-17T11:21:55.956Z,80.09
2023-01-17T11:24:34.193Z,80.29
2023-01-17T11:27:04.874Z,80.22
2023-01-17T11:29:38.899Z,79.88
2023-01-17T11:32:29.754Z,79.93
2023-01-17T11:35:21.223Z,79.97
2023-01-17T11:37:54.225Z,79.89
2023-01-17T11:40:29.169Z,79.49
2023-01-17T11:43:19.486Z,79.33
2023-01-17T11:46:03.632Z,79.47
2023-01-17T11:48:38.930Z,78.64
2023-01-17T11:51:22.353Z,78.72
2023-01-17T11:53:54.104Z,78.51
2023-01-17T11:56:34.347Z,78.81
2023-01-17T11:59:27.530Z,79.22
2023-01-17T12:02:33.571Z,78.56
2023-01-17T12:05:26.433Z,78.49
2023-01-17T12:08:05.567Z,78.36
2023-01-17T12:10:46.451Z,78.30
2023-01-17T12:13:44.766Z,78.37
2023-01-17T12:16:28.212Z,78.32
2023-01-17T12:19:06.962Z,77.87
2023-01-17T12:21:49.997Z,77.70
2023-01-17T12:24:37.911Z,77.72
2023-01-17T12:27:11.130Z,77.46
2023-01-17T12:29:51.225Z,76.97
2023-01-17T12:32:42.829Z,76.69
2023-01-17T12:35:17.928Z,76.45
2023-01-17T12:38:04.271Z,76.45
2023-01-17T12:40:42.125Z,76.27
2023-01-17T12:43:20.579Z,76.43
2023-01-17T12:45:54.541Z,76.37
2023-01-17T12:48:29.589Z,76.63
2023-01-17T12:51:06.860Z,76.84
2023-01-17T12:53:47.812Z,76.71
2023-01-17T12:56:25.232Z,76.78
2023-01-17T12:59:02.321Z,76.94
2023-01-17T13:01:39.986Z,76.46
2023-01-17T13:04:16.197Z,76.51
2023-01-17T13:07:01.571Z,76.94
2023-01-17T13:09:36.111Z,76.54
2023-01-17T13:12:11.323Z,76.43
2023-01-17T13:14:41.699Z,76.01
2023-01-17T13:17:27.852Z,75.80
2023-01-17T13:20:04.192Z,75.38
2023-01-17T13:22:39.358Z,75.35
2023-01-17T13:25:23.933Z,75.11
2023-01-17T13:28:16.869Z,74.52
2023-01-17T13:31:18.827Z,74.50
2023-01-17T13:34:04.318Z,74.83
2023-01-17T13:36:46.508Z,74.74
2023-01-17T13:39:40.971Z,74.69
2023-01-17T13:42:20.127Z,74.51
2023-01-17T13:44:50.954Z,74.77
2023-01-17T13:47:42.477Z,74.92
2023-01-17T13:50:50.182Z,74.68
2023-01-17T13:53:54.961Z,74.55
2023-01-17T13:56:31.627Z,74.10
2023-01-17T13:59:19.630Z,74.04
2023-01-17T14:01:55.268Z,73.72
2023-01-17T14:04:47.414Z,73.33
2023-01-17T14:07:27.269Z,73.28
2023-01-17T14:09:57.902Z,73.48
2023-01-17T14:12:34.057Z,73.24
2023-01-17T14:15:06.832Z,72.73
2023-01-17T14:17:52.160Z,72.13
2023-01-17T14:20:50.604Z,72.19
2023-01-17T14:24:07.182Z,71.86
2023-01-17T14:26:44.689Z,71.74
2023-01-17T14:29:49.822Z,71.23
2023-01-17T14:32:23.054Z,70.80
2023-01-17T14:34:55.296Z,70.73
2023-01-17T14:37:39.371Z,70.93
2023-01-17T14:40:26.310Z,71.06
2023-01-17T14:43:02.690Z,71.17
2023-01-17T14:45:35.000Z,71.34
2023-01-17T14:48:07.787Z,71.33
2023-01-17T14:50:42.714Z,71.57
2023-01-17T14:53:21.985Z,71.51
2023-01-17T14:55:58.822Z,71.61
2023-01-17T14:58:32.327Z,71.58
2023-01-17T15:01:06.597Z,71.79
2023-01-17T15:03:45.082Z,71.90
2023-01-17T15:06:20.093Z,71.69
2023-01-17T15:08:53.892Z,71.93
2023-01-17T15:11:26.980Z,71.86
2023-01-17T15:14:00.156Z,71.61
2023-01-17T15:16:33.657Z,71.93
2023-01-17T15:19:11.181Z,72.24
2023-01-17T15:21:43.999Z,72.14
2023-01-17T15:24:20.751Z,72.51
2023-01-17T15:26:51.997Z,72.65
2023-01-17T15:29:27.110Z,72.76
2023-01-17T15:31:59.421Z,72.99
2023-01-17T15:34:31.962Z,73.16
2023-01-17T15:37:04.860Z,73.01
2023-01-17T15:39:38.493Z,73.43
2023-01-17T15:42:27.105Z,73.47
2023-01-17T15:45:01.522Z,73.51
2023-01-17T15:47:34.119Z,73.35
2023-01-17T15:50:39.574Z,72.98
2023-01-17T15:53:32.417Z,73.15
2023-01-17T15:56:19.822Z,73.11
2023-01-17T15:58:51.081Z,73.13
2023-01-17T16:01:28.585Z,73.01
2023-01-17T16:03:59.279Z,72.87
2023-01-17T16:06:45.622Z,72.87
2023-01-17T16:09:23.978Z,73.03
2023-01-17T16:11:54.617Z,73.17
2023-01-17T16:14:25.360Z,72.91
2023-01-17T16:16:56.001Z,72.84
2023-01-17T16:19:26.828Z,73.27
2023-01-17T16:22:02.609Z,73.34
2023-01-17T16:24:33.415Z,73.06
2023-01-17T16:27:04.359Z,73.08
2023-01-17T16:29:35.736Z,73.01
2023-01-17T16:32:08.650Z,73.31
2023-01-17T16:34:39.051Z,73.29
2023-01-17T16:37:10.129Z,73.04
2023-01-17T16:39:41.457Z,73.22
2023-01-17T16:42:13.573Z,72.93
2023-01-17T16:44:44.269Z,73.16
2023-01-17T16:47:14.808Z,73.06
2023-01-17T16:49:45.221Z,73.50
2023-01-17T16:52:16.067Z,73.63
2023-01-17T16:54:46.343Z,73.64
2023-01-17T16:57:17.033Z,74.43
2023-01-17T16:59:50.857Z,74.43
2023-01-17T17:02:23.061Z,74.08
2023-01-17T17:04:53.971Z,74.05
2023-01-17T17:07:24.907Z,73.92
2023-01-17T17:09:55.279Z,73.65
2023-01-17T17:12:25.897Z,73.56
2023-01-17T17:14:56.253Z,73.64
2023-01-17T17:17:26.609Z,74.18
2023-01-17T17:19:58.640Z,74.42
2023-01-17T17:22:29.303Z,74.86
2023-01-17T17:24:59.701Z,74.80
2023-01-17T17:27:31.132Z,74.66
2023-01-17T17:30:01.798Z,74.99
2023-01-17T17:32:33.425Z,74.91
2023-01-17T17:35:03.989Z,74.82
2023-01-17T17:37:34.635Z,74.82
2023-01-17T17:40:05.547Z,74.94
2023-01-17T17:42:36.715Z,75.20
2023-01-17T17:45:08.389Z,75.14
2023-01-17T17:47:38.714Z,75.32
2023-01-17T17:50:11.307Z,74.93
2023-01-17T17:52:44.103Z,75.20
2023-01-17T17:55:19.018Z,75.42
2023-01-17T17:57:49.501Z,75.49
2023-01-17T18:00:23.009Z,75.32
2023-01-17T18:02:53.789Z,75.19
2023-01-17T18:05:24.122Z,75.11
2023-01-17T18:07:55.245Z,75.26
2023-01-17T18:10:26.198Z,75.02
2023-01-17T18:12:56.580Z,74.90
2023-01-17T18:15:27.128Z,75.09
2023-01-17T18:17:57.887Z,75.28
2023-01-17T18:20:28.362Z,75.31
2023-01-17T18:22:58.727Z,75.67
2023-01-17T18:25:29.148Z,75.74
2023-01-17T18:27:59.755Z,75.60
2023-01-17T18:30:38.800Z,75.75
2023-01-17T18:33:10.685Z,75.98
2023-01-17T18:35:43.719Z,75.85
2023-01-17T18:38:14.381Z,75.65
2023-01-17T18:40:44.871Z,75.98
2023-01-17T18:43:15.777Z,76.14
2023-01-17T18:45:53.222Z,76.07
2023-01-17T18:48:25.329Z,76.08
2023-01-17T18:51:01.040Z,76.27
2023-01-17T18:53:33.037Z,76.27
2023-01-17T18:56:06.275Z,76.37
2023-01-17T18:58:39.626Z,76.19
2023-01-17T19:01:13.197Z,76.08
2023-01-17T19:03:46.424Z,76.20
2023-01-17T19:06:19.415Z,76.14
2023-01-17T19:08:51.654Z,75.99
2023-01-17T19:11:23.321Z,75.94
2023-01-17T19:13:53.926Z,75.99
2023-01-17T19:16:27.901Z,76.06
2023-01-17T19:19:02.586Z,76.40
2023-01-17T19:21:33.089Z,76.42
2023-01-17T19:24:04.151Z,76.52
2023-01-17T19:26:34.863Z,76.34
2023-01-17T19:29:06.693Z,76.66
2023-01-17T19:31:42.451Z,76.19
2023-01-17T19:34:14.699Z,76.00
2023-01-17T19:36:45.344Z,76.01
2023-01-17T19:39:16.573Z,76.29
2023-01-17T19:41:47.489Z,76.40
2023-01-17T19:44:17.857Z,76.53
2023-01-17T19:46:48.836Z,76.44
2023-01-17T19:49:23.890Z,76.51
2023-01-17T19:51:54.952Z,75.94
2023-01-17T19:54:25.794Z,76.01
2023-01-17T19:56:56.438Z,76.35
2023-01-17T19:59:27.401Z,76.64
2023-01-17T20:02:17.518Z,76.88
2023-01-17T20:05:03.316Z,77.04
2023-01-17T20:07:35.189Z,77.26
2023-01-17T20:10:11.185Z,77.50
2023-01-17T20:12:44.874Z,77.90
2023-01-17T20:15:19.774Z,77.95
2023-01-17T20:17:51.935Z,77.89
2023-01-17T20:20:22.704Z,77.77
2023-01-17T20:22:55.732Z,77.87
2023-01-17T20:25:28.694Z,77.96
2023-01-17T20:28:04.941Z,78.15
2023-01-17T20:30:38.449Z,78.34
2023-01-17T20:33:13.949Z,78.56
2023-01-17T20:35:44.421Z,78.79
2023-01-17T20:38:15.081Z,78.83
2023-01-17T20:41:03.047Z,78.81
2023-01-17T20:43:34.991Z,79.06
2023-01-17T20:46:13.313Z,79.27
2023-01-17T20:48:48.476Z,79.28
2023-01-17T20:51:20.162Z,79.33
2023-01-17T20:53:56.090Z,79.19
2023-01-17T20:56:37.639Z,79.11
2023-01-17T20:59:17.041Z,79.28
2023-01-17T21:01:48.345Z,79.10
2023-01-17T21:04:28.601Z,78.88
2023-01-17T21:07:03.156Z,78.61
2023-01-17T21:09:34.315Z,78.44
2023-01-17T21:12:16.371Z,78.13
2023-01-17T21:15:11.444Z,78.25
2023-01-17T21:17:47.342Z,78.18
2023-01-17T21:20:19.397Z,78.05
2023-01-17T21:22:49.982Z,77.96
2023-01-17T21:25:26.961Z,78.13
2023-01-17T21:27:59.638Z,78.51
2023-01-17T21:30:30.100Z,78.97
2023-01-17T21:33:07.213Z,78.64
2023-01-17T21:35:46.087Z,78.41
2023-01-17T21:38:23.530Z,78.10
2023-01-17T21:40:58.885Z,78.10
2023-01-17T21:43:29.881Z,78.29
2023-01-17T21:46:05.493Z,78.27
2023-01-17T21:48:37.079Z,78.26
2023-01-17T21:51:09.535Z,78.87
2023-01-17T21:53:43.457Z,79.06
2023-01-17T21:56:33.260Z,79.13
2023-01-17T21:59:04.323Z,79.29
2023-01-17T22:01:35.611Z,79.57
2023-01-17T22:04:07.311Z,79.57
2023-01-17T22:06:39.178Z,79.58
2023-01-17T22:09:09.669Z,79.85
2023-01-17T22:11:40.299Z,79.68
2023-01-17T22:14:11.055Z,79.63
2023-01-17T22:16:41.849Z,79.59
2023-01-17T22:19:13.003Z,79.23
2023-01-17T22:21:44.237Z,79.36
2023-01-17T22:24:16.743Z,79.37
2023-01-17T22:26:47.083Z,79.50
2023-01-17T22:29:18.898Z,79.78
2023-01-17T22:31:49.328Z,80.18
2023-01-17T22:34:20.074Z,79.92
2023-01-17T22:36:50.736Z,80.23
2023-01-17T22:39:21.823Z,80.36
2023-01-17T22:41:52.516Z,80.42
2023-01-17T22:44:23.177Z,80.54
2023-01-17T22:46:53.566Z,80.52
2023-01-17T22:49:24.392Z,80.32
2023-01-17T22:51:54.862Z,80.65
2023-01-17T22:54:25.328Z,80.81
2023-01-17T22:56:55.653Z,80.88
2023-01-17T22:59:25.982Z,80.92
2023-01-17T23:01:56.352Z,81.11
2023-01-17T23:04:28.240Z,81.15
2023-01-17T23:06:58.685Z,81.14
2023-01-17T23:09:29.430Z,81.18
2023-01-17T23:12:00.369Z,81.06
2023-01-17T23:14:52.305Z,80.94
2023-01-17T23:17:42.269Z,81.19
2023-01-17T23:20:14.822Z,81.29
2023-01-17T23:22:45.179Z,81.42
2023-01-17T23:25:15.994Z,81.32
2023-01-17T23:28:05.864Z,81.05
2023-01-17T23:30:40.227Z,81.39
2023-01-17T23:33:12.228Z,80.84
2023-01-17T23:35:45.507Z,80.34
2023-01-17T23:38:34.247Z,80.31
2023-01-17T23:41:25.140Z,79.74
2023-01-17T23:43:57.224Z,79.53
2023-01-17T23:46:30.071Z,79.83
2023-01-17T23:49:00.990Z,80.20
2023-01-17T23:51:31.777Z,80.58
2023-01-17T23:54:05.295Z,80.65
2023-01-17T23:56:35.794Z,80.02
2023-01-17T23:59:06.709Z,79.99
